createdAt,value
2019-03-18T12:04:53.724Z,3.07
2019-03-18T12:07:22.587Z,3.00
2019-03-18T12:09:51.452Z,2.30
2019-03-18T12:12:20.341Z,3.00
2019-03-18T12:14:49.502Z,2.60
2019-03-18T12:17:18.452Z,2.83
2019-03-18T12:19:47.808Z,3.30
2019-03-18T12:22:16.828Z,2.93
2019-03-18T12:24:45.733Z,2.83
2019-03-18T12:27:14.618Z,3.20
2019-03-18T12:29:43.677Z,2.50
2019-03-18T12:32:13.224Z,2.80
2019-03-18T12:34:42.094Z,2.30
2019-03-18T12:37:11.185Z,2.70
2019-03-18T12:39:40.049Z,2.40
2019-03-18T12:42:09.169Z,2.90
2019-03-18T12:44:38.494Z,2.87
2019-03-18T12:47:07.761Z,2.80
2019-03-18T12:49:36.773Z,2.63
2019-03-18T12:52:05.619Z,2.70
2019-03-18T12:54:34.497Z,2.73
2019-03-18T12:57:03.746Z,2.57
2019-03-18T12:59:32.619Z,2.83
2019-03-18T13:02:01.497Z,2.57
2019-03-18T13:04:33.900Z,2.80
2019-03-18T13:07:01.182Z,2.83
2019-03-18T13:09:30.449Z,2.60
2019-03-18T13:11:59.751Z,3.20
2019-03-18T13:14:28.603Z,2.77
2019-03-18T13:16:57.508Z,2.67
2019-03-18T13:19:26.670Z,2.40
2019-03-18T13:21:55.952Z,2.43
2019-03-18T13:24:25.033Z,2.13
2019-03-18T13:26:54.211Z,2.43
2019-03-18T13:29:23.236Z,4.00
2019-03-18T13:31:52.323Z,2.63
2019-03-18T13:34:21.633Z,3.50
2019-03-18T13:36:50.535Z,2.43
2019-03-18T13:39:19.763Z,2.40
2019-03-18T13:44:41.968Z,2.33
2019-03-18T13:47:11.029Z,2.50
2019-03-18T13:49:40.375Z,2.57
2019-03-18T13:52:10.073Z,1.97
2019-03-18T13:54:39.143Z,2.20
2019-03-18T13:57:08.201Z,2.10
2019-03-18T13:59:37.439Z,1.73
2019-03-18T14:02:06.435Z,2.30
2019-03-18T14:04:35.520Z,2.67
2019-03-18T14:07:05.669Z,2.43
2019-03-18T14:09:34.769Z,2.40
2019-03-18T14:12:03.959Z,2.30
2019-03-18T14:14:32.813Z,1.97
2019-03-18T14:17:02.433Z,2.50
2019-03-18T14:19:32.006Z,2.13
2019-03-18T14:22:00.834Z,2.03
2019-03-18T14:24:30.582Z,2.10
2019-03-18T14:26:59.739Z,2.07
2019-03-18T14:29:28.643Z,2.17
2019-03-18T14:31:57.503Z,2.90
2019-03-18T14:34:26.543Z,2.00
2019-03-18T14:36:55.480Z,2.10
2019-03-18T14:39:24.650Z,2.93
2019-03-18T14:41:53.817Z,2.57
2019-03-18T14:44:22.694Z,2.30
2019-03-18T14:46:52.038Z,1.97
2019-03-18T14:49:21.310Z,2.37
2019-03-18T14:51:50.200Z,2.20
2019-03-18T14:54:19.514Z,2.13
2019-03-18T14:56:48.598Z,3.57
2019-03-18T14:59:17.901Z,2.00
2019-03-18T15:01:47.050Z,2.13
2019-03-18T15:04:16.229Z,2.20
2019-03-18T15:06:45.118Z,2.43
2019-03-18T15:09:15.479Z,2.23
2019-03-18T15:11:44.649Z,2.20
2019-03-18T15:14:13.696Z,2.20
2019-03-18T15:16:42.957Z,2.30
2019-03-18T15:19:12.069Z,2.67
2019-03-18T15:21:41.050Z,2.47
2019-03-18T15:24:16.709Z,2.40
2019-03-18T15:26:39.764Z,2.23
2019-03-18T15:29:08.681Z,2.27
2019-03-18T15:31:37.980Z,2.30
2019-03-18T15:34:07.251Z,2.20
2019-03-18T15:36:36.100Z,2.40
2019-03-18T15:41:56.607Z,2.30
2019-03-18T15:44:25.718Z,2.20
2019-03-18T15:46:54.497Z,2.00
2019-03-18T15:49:23.363Z,2.00
2019-03-18T15:51:52.467Z,2.20
2019-03-18T15:54:21.801Z,2.33
2019-03-18T15:56:50.673Z,2.13
2019-03-18T15:59:20.392Z,2.00
2019-03-18T16:01:49.144Z,3.63
2019-03-18T16:04:17.976Z,4.47
2019-03-18T16:06:46.742Z,2.23
2019-03-18T16:09:15.629Z,2.23
2019-03-18T16:11:44.483Z,1.90
2019-03-18T16:14:13.958Z,1.80
2019-03-18T16:16:42.757Z,2.13
2019-03-18T16:19:11.983Z,2.27
2019-03-18T16:21:40.928Z,2.53
2019-03-18T16:24:09.932Z,2.10
2019-03-18T16:26:39.217Z,2.47
2019-03-18T16:29:08.508Z,2.17
2019-03-18T16:31:37.677Z,2.40
2019-03-18T16:34:06.553Z,2.20
2019-03-18T16:36:35.654Z,4.07
2019-03-18T16:39:05.614Z,2.40
2019-03-18T16:41:34.868Z,2.50
2019-03-18T16:44:04.043Z,2.00
2019-03-18T16:46:32.767Z,2.33
2019-03-18T16:49:01.868Z,2.43
2019-03-18T16:51:32.497Z,2.47
2019-03-18T16:54:01.421Z,2.17
2019-03-18T16:56:30.207Z,2.20
2019-03-18T16:58:59.266Z,2.13
2019-03-18T17:01:28.246Z,2.67
2019-03-18T17:03:57.276Z,2.00
2019-03-18T17:06:28.384Z,2.47
2019-03-18T17:08:57.272Z,2.40
2019-03-18T17:11:26.616Z,2.10
2019-03-18T17:13:55.397Z,2.00
2019-03-18T17:16:24.497Z,2.33
2019-03-18T17:18:54.061Z,1.97
2019-03-18T17:21:23.314Z,2.63
2019-03-18T17:23:54.227Z,2.60
2019-03-18T17:26:23.984Z,2.20
2019-03-18T17:28:53.126Z,2.23
2019-03-18T17:31:22.347Z,2.40
2019-03-18T17:33:51.852Z,2.47
2019-03-18T17:36:21.163Z,2.40
2019-03-18T17:38:50.439Z,2.53
2019-03-18T17:41:19.527Z,2.37
2019-03-18T17:43:49.338Z,2.20
2019-03-18T17:46:20.950Z,2.20
2019-03-18T17:48:50.043Z,2.57
2019-03-18T17:51:20.498Z,2.33
2019-03-18T17:53:49.937Z,2.70
2019-03-18T17:56:29.683Z,2.20
2019-03-18T17:58:48.448Z,2.20
2019-03-18T18:01:17.549Z,3.00
2019-03-18T18:03:46.537Z,2.10
2019-03-18T18:06:15.298Z,2.00
2019-03-18T18:08:45.152Z,2.20
2019-03-18T18:11:14.302Z,2.47
2019-03-18T18:13:43.422Z,3.00
2019-03-18T18:16:13.509Z,2.50
2019-03-18T18:18:43.074Z,2.70
2019-03-18T18:21:12.115Z,2.33
2019-03-18T18:23:41.031Z,2.90
2019-03-18T18:26:09.942Z,2.77
2019-03-18T18:28:40.060Z,2.27
2019-03-18T18:31:09.823Z,2.90
2019-03-18T18:33:38.878Z,2.50
2019-03-18T18:36:08.239Z,2.50
2019-03-18T18:38:37.076Z,2.50
2019-03-18T18:41:06.425Z,2.67
2019-03-18T18:43:35.662Z,4.57
2019-03-18T18:46:05.109Z,5.50
2019-03-18T18:48:33.847Z,3.77
2019-03-18T18:51:02.662Z,3.80
2019-03-18T18:53:32.173Z,5.60
2019-03-18T18:56:01.389Z,4.13
2019-03-18T18:58:30.319Z,5.53
2019-03-18T19:00:59.579Z,3.90
2019-03-18T19:03:29.199Z,4.80
2019-03-18T19:05:59.129Z,5.07
2019-03-18T19:08:28.194Z,4.23
2019-03-18T19:10:57.164Z,6.17
2019-03-18T19:13:26.165Z,4.80
2019-03-18T19:15:55.408Z,4.67
2019-03-18T19:18:24.253Z,5.07
2019-03-18T19:20:53.075Z,4.63
2019-03-18T19:23:23.245Z,4.43
2019-03-18T19:25:52.272Z,5.57
2019-03-18T19:28:21.284Z,4.60
2019-03-18T19:30:50.334Z,5.27
2019-03-18T19:33:19.670Z,4.77
2019-03-18T19:35:48.460Z,3.83
2019-03-18T19:38:20.523Z,4.67
